createdAt,value
2016-05-09T00:00:35.965Z,8.28
2016-05-09T00:01:59.281Z,8.25
2016-05-09T00:03:12.349Z,8.22
2016-05-09T00:04:23.040Z,8.25
2016-05-09T00:05:44.511Z,8.17
2016-05-09T00:06:45.982Z,8.22
2016-05-09T00:08:18.051Z,8.25
2016-05-09T00:09:46.725Z,8.19
2016-05-09T00:11:35.480Z,8.21
2016-05-09T00:13:06.858Z,8.31
2016-05-09T00:14:21.567Z,8.17
2016-05-09T00:16:03.709Z,8.25
2016-05-09T00:17:50.293Z,8.22
2016-05-09T00:18:29.905Z,8.11
2016-05-09T00:19:29.799Z,8.1
2016-05-09T00:20:37.755Z,8.11
2016-05-09T00:21:30.570Z,8.07
2016-05-09T00:22:30.291Z,8.09
2016-05-09T00:23:39.591Z,8.09
2016-05-09T00:24:29.405Z,8.13
2016-05-09T00:25:30.768Z,8.21
2016-05-09T00:26:32.004Z,8.17
2016-05-09T00:27:30.649Z,8.25
2016-05-09T00:28:42.010Z,8.22
2016-05-09T00:29:39.919Z,8.21
2016-05-09T00:30:29.938Z,8.19
2016-05-09T00:31:31.096Z,8.24
2016-05-09T00:33:29.696Z,8.11
2016-05-09T00:34:30.995Z,8.22
2016-05-09T00:35:30.592Z,8.06
2016-05-09T00:36:30.735Z,8.16
2016-05-09T00:37:29.393Z,8.17
2016-05-09T00:38:29.662Z,8.1
2016-05-09T00:39:31.071Z,8.1
2016-05-09T00:40:29.824Z,8.14
2016-05-09T00:41:38.701Z,8.03
2016-05-09T00:42:29.626Z,8.17
2016-05-09T00:43:31.629Z,8.07
2016-05-09T00:44:31.023Z,8.16
2016-05-09T00:45:31.383Z,8.04
2016-05-09T00:46:29.793Z,8.17
2016-05-09T00:48:29.830Z,8.26
2016-05-09T00:49:30.863Z,8.21
2016-05-09T00:51:30.947Z,8.21
2016-05-09T00:52:41.638Z,8.19
2016-05-09T00:53:29.577Z,8.11
2016-05-09T00:54:29.908Z,8.16
2016-05-09T00:55:30.630Z,8.04
2016-05-09T00:56:29.944Z,8.06
2016-05-09T00:57:30.072Z,8.09
2016-05-09T00:58:30.013Z,8.09
2016-05-09T00:59:30.063Z,8.04
2016-05-09T01:00:30.627Z,8.03
2016-05-09T01:01:29.568Z,7.96
2016-05-09T01:02:30.711Z,7.95
2016-05-09T01:03:29.463Z,7.96
2016-05-09T01:04:30.091Z,7.89
2016-05-09T01:05:29.657Z,7.83
2016-05-09T01:06:30.518Z,7.77
2016-05-09T01:07:30.490Z,7.78
2016-05-09T01:08:30.601Z,7.73
2016-05-09T01:09:29.262Z,7.77
2016-05-09T01:10:30.640Z,7.71
2016-05-09T01:11:29.939Z,7.7
2016-05-09T01:12:30.222Z,7.59
2016-05-09T01:13:30.944Z,7.63
2016-05-09T01:14:40.289Z,7.52
2016-05-09T01:15:30.184Z,7.51
2016-05-09T01:16:30.312Z,7.52
2016-05-09T01:17:29.720Z,7.51
2016-05-09T01:18:30.489Z,7.44
2016-05-09T01:19:31.522Z,7.39
2016-05-09T01:20:29.556Z,7.51
2016-05-09T01:21:40.590Z,7.48
2016-05-09T01:22:30.937Z,7.54
2016-05-09T01:23:30.142Z,7.4
2016-05-09T01:25:29.007Z,7.39
2016-05-09T01:27:29.263Z,7.37
2016-05-09T01:28:37.813Z,7.27
2016-05-09T01:29:29.143Z,7.27
2016-05-09T01:30:29.208Z,7.26
2016-05-09T01:31:28.913Z,7.23
2016-05-09T01:32:37.791Z,7.23
2016-05-09T01:33:30.029Z,7.27
2016-05-09T01:34:29.172Z,7.29
2016-05-09T01:35:29.253Z,7.29
2016-05-09T01:36:28.802Z,7.34
2016-05-09T01:37:29.211Z,7.27
2016-05-09T01:38:31.433Z,7.22
2016-05-09T01:39:30.561Z,7.22
2016-05-09T01:40:28.548Z,7.23
2016-05-09T01:41:29.113Z,7.22
2016-05-09T01:43:29.133Z,7.13
2016-05-09T01:45:30.623Z,7.09
2016-05-09T01:46:29.095Z,7.05
2016-05-09T01:47:28.520Z,7.05
2016-05-09T01:48:29.334Z,7.05
2016-05-09T01:49:29.791Z,7.05
2016-05-09T01:50:29.996Z,7.03
2016-05-09T01:51:29.906Z,7.09
2016-05-09T01:52:29.861Z,7.08
2016-05-09T01:53:29.286Z,7.21
2016-05-09T01:54:37.757Z,7.08
2016-05-09T01:55:36.807Z,7.01
2016-05-09T01:56:30.216Z,7.03
2016-05-09T01:57:37.766Z,7.03
2016-05-09T01:58:30.033Z,7.08
2016-05-09T01:59:29.614Z,7.03
2016-05-09T02:00:37.773Z,7.05
2016-05-09T02:01:29.979Z,7.04
2016-05-09T02:02:29.716Z,7
2016-05-09T02:03:29.391Z,7.01
2016-05-09T02:04:29.894Z,6.88
2016-05-09T02:05:30.115Z,6.85
2016-05-09T02:06:30.023Z,6.86
2016-05-09T02:07:29.964Z,6.9
2016-05-09T02:09:29.548Z,6.79
2016-05-09T02:10:29.660Z,6.76
2016-05-09T02:11:29.584Z,6.8
2016-05-09T02:13:29.167Z,6.76
2016-05-09T02:14:28.624Z,6.8
2016-05-09T02:15:28.970Z,6.85
2016-05-09T02:16:28.817Z,6.86
2016-05-09T02:17:28.834Z,6.88
2016-05-09T02:18:29.040Z,6.8
2016-05-09T02:19:29.605Z,6.86
2016-05-09T02:20:28.983Z,6.8
2016-05-09T02:21:40.830Z,6.8
2016-05-09T02:22:28.505Z,6.9
2016-05-09T02:23:28.904Z,6.86
2016-05-09T02:24:30.204Z,6.95
2016-05-09T02:25:28.784Z,7
2016-05-09T02:26:28.788Z,6.98
2016-05-09T02:27:29.010Z,7
2016-05-09T02:28:28.762Z,7
2016-05-09T02:29:28.373Z,7.03
2016-05-09T02:30:29.439Z,7.26
2016-05-09T02:31:28.770Z,7.27
2016-05-09T02:32:29.757Z,7.22
2016-05-09T02:33:29.698Z,7.3
2016-05-09T02:34:29.778Z,7.26
2016-05-09T02:35:29.437Z,7.29
2016-05-09T02:36:28.673Z,7.21
2016-05-09T02:37:28.598Z,7.16
2016-05-09T02:38:28.679Z,7.23
2016-05-09T02:40:28.200Z,7.12
2016-05-09T02:41:37.812Z,7.15
2016-05-09T02:42:29.362Z,7.12
2016-05-09T02:43:29.505Z,7.16
2016-05-09T02:44:36.773Z,7.08
2016-05-09T02:45:28.698Z,6.98
2016-05-09T02:46:28.622Z,7.01
2016-05-09T02:47:28.281Z,7.09
2016-05-09T02:48:28.550Z,7
2016-05-09T02:49:28.756Z,6.95
2016-05-09T02:50:28.258Z,6.86
2016-05-09T02:51:28.433Z,6.93
2016-05-09T02:52:28.498Z,6.9
2016-05-09T02:53:28.407Z,6.91
2016-05-09T02:54:29.378Z,6.86
2016-05-09T02:55:29.257Z,6.8
2016-05-09T02:56:28.587Z,6.83
2016-05-09T02:57:28.449Z,6.85
2016-05-09T02:59:28.580Z,6.76
2016-05-09T03:00:28.832Z,6.65
2016-05-09T03:01:29.476Z,6.65
2016-05-09T03:02:30.071Z,6.67
2016-05-09T03:03:29.043Z,6.72
2016-05-09T03:05:28.626Z,6.61
2016-05-09T03:07:28.882Z,6.58
2016-05-09T03:08:29.228Z,6.57
2016-05-09T03:09:29.357Z,6.51
2016-05-09T03:10:28.250Z,6.6
2016-05-09T03:11:28.189Z,6.62
2016-05-09T03:13:28.836Z,6.57
2016-05-09T03:14:28.198Z,6.61
2016-05-09T03:15:29.372Z,6.55
2016-05-09T03:16:29.172Z,6.62
2016-05-09T03:17:29.003Z,6.58
2016-05-09T03:18:29.568Z,6.6
2016-05-09T03:19:29.008Z,6.52
2016-05-09T03:20:28.199Z,6.57
2016-05-09T03:21:29.467Z,6.55
2016-05-09T03:22:28.266Z,6.54
2016-05-09T03:23:29.035Z,6.55
2016-05-09T03:24:28.943Z,6.52
2016-05-09T03:26:36.777Z,6.44
2016-05-09T03:27:28.889Z,6.55
2016-05-09T03:28:27.924Z,6.39
2016-05-09T03:29:29.082Z,6.47
2016-05-09T03:30:27.538Z,6.47
2016-05-09T03:31:43.821Z,6.34
2016-05-09T03:32:53.246Z,6.36
2016-05-09T03:34:10.123Z,6.33
2016-05-09T03:35:22.645Z,6.25
2016-05-09T03:36:35.788Z,6.26
2016-05-09T03:37:47.103Z,6.39
2016-05-09T03:39:02.529Z,6.4
2016-05-09T03:40:12.312Z,6.4
2016-05-09T03:41:34.505Z,6.36
2016-05-09T03:42:58.039Z,6.24
2016-05-09T03:44:12.822Z,6.26
2016-05-09T03:45:23.453Z,6.29
2016-05-09T03:46:37.315Z,6.29
2016-05-09T03:47:50.380Z,6.2
2016-05-09T03:49:16.933Z,6.2
2016-05-09T03:51:14.825Z,6.17
2016-05-09T03:52:28.800Z,6.24
2016-05-09T03:54:55.758Z,6.18
2016-05-09T03:56:12.011Z,6.21
2016-05-09T03:57:37.563Z,6.15
2016-05-09T03:59:24.240Z,6.1
2016-05-09T04:01:24.652Z,6.17
2016-05-09T04:02:24.358Z,6.24
2016-05-09T04:03:24.860Z,6.33
2016-05-09T04:04:24.926Z,6.33
2016-05-09T04:05:25.522Z,6.21
2016-05-09T04:06:25.885Z,6.25
2016-05-09T04:07:24.668Z,6.33
2016-05-09T04:08:25.015Z,6.25
2016-05-09T04:09:25.501Z,6.29
2016-05-09T04:10:24.973Z,6.31
2016-05-09T04:11:24.694Z,6.34
2016-05-09T04:12:33.776Z,6.4
2016-05-09T04:13:24.810Z,6.43
2016-05-09T04:14:25.469Z,6.54
2016-05-09T04:15:25.174Z,6.39
2016-05-09T04:16:24.317Z,6.47
2016-05-09T04:17:24.445Z,6.58
2016-05-09T04:18:24.276Z,6.52
2016-05-09T04:19:25.358Z,6.54
2016-05-09T04:20:24.203Z,6.57
2016-05-09T04:21:25.237Z,6.51
2016-05-09T04:22:24.443Z,6.64
2016-05-09T04:23:25.383Z,6.65
2016-05-09T04:24:25.574Z,6.73
2016-05-09T04:25:24.842Z,6.79
2016-05-09T04:26:25.094Z,6.8
2016-05-09T04:27:25.441Z,6.85
2016-05-09T04:28:24.178Z,6.86
2016-05-09T04:30:25.199Z,6.98
2016-05-09T04:31:25.421Z,7
2016-05-09T04:32:24.907Z,7
2016-05-09T04:33:24.535Z,7
2016-05-09T04:34:24.929Z,6.98
2016-05-09T04:35:25.087Z,7.08
2016-05-09T04:36:24.028Z,7.01
2016-05-09T04:37:24.687Z,7.18
2016-05-09T04:38:25.674Z,7.12
2016-05-09T04:39:25.051Z,7.19
2016-05-09T04:40:25.492Z,7.16
2016-05-09T04:41:25.181Z,7.01
2016-05-09T04:42:24.122Z,7.22
2016-05-09T04:43:28.859Z,7.27
2016-05-09T04:44:53.237Z,7.26
2016-05-09T04:45:55.209Z,7.19
2016-05-09T04:47:03.898Z,7.29
2016-05-09T04:48:05.744Z,7.34
2016-05-09T04:49:27.001Z,7.34
2016-05-09T04:50:39.658Z,7.48
2016-05-09T04:51:51.787Z,7.49
2016-05-09T04:53:13.024Z,7.51
2016-05-09T04:54:37.404Z,7.63
2016-05-09T04:55:57.720Z,7.64
2016-05-09T04:57:10.988Z,7.77
2016-05-09T04:58:20.680Z,7.75
2016-05-09T04:59:13.946Z,7.88
2016-05-09T21:38:25.431Z,9.78
2016-05-09T21:39:26.185Z,9.77
2016-05-09T21:40:26.562Z,9.81
2016-05-09T21:41:25.987Z,9.92
2016-05-09T21:42:25.850Z,9.84
2016-05-09T21:43:26.445Z,9.75
2016-05-09T21:44:25.839Z,9.75
2016-05-09T21:45:26.436Z,9.75
2016-05-09T21:46:25.453Z,9.78
2016-05-09T21:47:33.723Z,9.72
2016-05-09T21:49:25.384Z,9.63
2016-05-09T21:50:26.089Z,9.75
2016-05-09T21:51:25.045Z,9.67
2016-05-09T21:52:24.985Z,9.66
2016-05-09T21:53:25.644Z,9.63
2016-05-09T21:54:26.319Z,9.7
2016-05-09T21:55:26.196Z,9.7
2016-05-09T21:57:26.249Z,9.66
2016-05-09T21:58:26.080Z,9.62
2016-05-09T21:59:26.410Z,9.64
2016-05-09T22:00:25.804Z,9.63
2016-05-09T22:01:26.338Z,9.67
2016-05-09T22:02:25.512Z,9.7
2016-05-09T22:03:26.515Z,9.7
2016-05-09T22:04:25.580Z,9.64
2016-05-09T22:05:25.645Z,9.66
2016-05-09T22:06:25.774Z,9.59
2016-05-09T22:07:26.635Z,9.57
2016-05-09T22:08:25.262Z,9.63
2016-05-09T22:09:26.031Z,9.71
2016-05-09T22:10:25.112Z,9.57
2016-05-09T22:11:25.803Z,9.7
2016-05-09T22:12:26.008Z,9.59
2016-05-09T22:13:24.886Z,9.64
2016-05-09T22:14:26.232Z,9.62
2016-05-09T22:15:26.110Z,9.55
2016-05-09T22:16:26.566Z,9.56
2016-05-09T22:17:26.225Z,9.52
2016-05-09T22:18:25.697Z,9.56
2016-05-09T22:19:24.808Z,9.6
2016-05-09T22:20:24.998Z,9.57
2016-05-09T22:21:25.001Z,9.53
2016-05-09T22:22:26.708Z,9.55
2016-05-09T22:23:25.710Z,9.59
2016-05-09T22:25:26.105Z,9.48
2016-05-09T22:26:25.124Z,9.53
2016-05-09T22:27:25.814Z,9.52
2016-05-09T22:28:25.911Z,9.55
2016-05-09T22:29:25.586Z,9.52
2016-05-09T22:30:25.854Z,9.48
2016-05-09T22:31:26.293Z,9.47
2016-05-09T22:32:25.921Z,9.55
2016-05-09T22:33:25.221Z,9.53
2016-05-09T22:34:24.942Z,9.48
2016-05-09T22:35:25.523Z,9.5
2016-05-09T22:36:25.573Z,9.47
2016-05-09T22:37:27.013Z,9.48
2016-05-09T22:38:25.265Z,9.48
2016-05-09T22:39:25.909Z,9.55
2016-05-09T22:40:25.817Z,9.42
2016-05-09T22:41:28.929Z,9.45
2016-05-09T22:42:26.042Z,9.42
2016-05-09T22:43:25.576Z,9.44
2016-05-09T22:44:26.860Z,9.35
2016-05-09T22:45:26.581Z,9.44
2016-05-09T22:46:24.662Z,9.29
2016-05-09T22:47:25.821Z,9.39
2016-05-09T22:48:24.667Z,9.35
2016-05-09T22:51:25.457Z,9.24
2016-05-09T22:52:24.553Z,9.24
2016-05-09T22:53:24.681Z,9.17
2016-05-09T22:54:24.496Z,9.14
2016-05-09T22:55:25.905Z,9.17
2016-05-09T22:56:24.876Z,9.14
2016-05-09T22:57:24.597Z,9.09
2016-05-09T22:59:25.150Z,9.09
2016-05-09T23:00:25.746Z,9.03
2016-05-09T23:02:25.502Z,9.03
2016-05-09T23:03:25.488Z,9
2016-05-09T23:04:24.507Z,9.03
2016-05-09T23:05:25.510Z,9.01
2016-05-09T23:06:25.888Z,9.01
2016-05-09T23:07:25.484Z,8.95
2016-05-09T23:08:25.612Z,8.95
2016-05-09T23:09:25.364Z,9.04
2016-05-09T23:10:25.976Z,8.86
2016-05-09T23:11:25.604Z,8.86
2016-05-09T23:12:24.873Z,8.9
2016-05-09T23:13:25.516Z,8.85
2016-05-09T23:14:33.754Z,8.92
2016-05-09T23:15:26.928Z,8.94
2016-05-09T23:16:25.711Z,8.95
2016-05-09T23:17:25.464Z,8.9
2016-05-09T23:18:24.670Z,9
2016-05-09T23:19:24.563Z,8.82
2016-05-09T23:20:25.581Z,8.82
2016-05-09T23:21:24.303Z,8.8
2016-05-09T23:22:24.462Z,8.83
2016-05-09T23:23:25.683Z,8.85
2016-05-09T23:24:25.405Z,8.83
2016-05-09T23:25:25.266Z,8.8
2016-05-09T23:26:24.723Z,8.71
2016-05-09T23:27:25.475Z,8.74
2016-05-09T23:28:25.025Z,8.74
2016-05-09T23:30:25.374Z,8.72
2016-05-09T23:31:25.705Z,8.67
2016-05-09T23:32:25.207Z,8.65
2016-05-09T23:33:24.819Z,8.6
2016-05-09T23:34:26.072Z,8.64
2016-05-09T23:35:25.857Z,8.64
2016-05-09T23:36:24.563Z,8.62
2016-05-09T23:37:24.440Z,8.65
2016-05-09T23:38:24.551Z,8.64
2016-05-09T23:39:25.695Z,8.65
2016-05-09T23:40:25.167Z,8.58
2016-05-09T23:41:25.388Z,8.62
2016-05-09T23:42:25.359Z,8.57
2016-05-09T23:43:35.269Z,8.61
2016-05-09T23:44:27.380Z,8.52
2016-05-09T23:45:35.681Z,8.49
2016-05-09T23:46:24.354Z,8.61
2016-05-09T23:47:25.248Z,8.61
2016-05-09T23:49:25.113Z,8.54
2016-05-09T23:50:25.225Z,8.54
2016-05-09T23:51:33.649Z,8.6
2016-05-09T23:52:24.558Z,8.47
2016-05-09T23:53:33.623Z,8.47
2016-05-09T23:54:25.142Z,8.46
2016-05-09T23:56:24.461Z,8.47
2016-05-09T23:57:24.478Z,8.49
2016-05-09T23:58:23.793Z,8.42
2016-05-09T23:59:24.233Z,8.4
